createdAt,value
2023-04-11T00:00:14.642Z,14.90
2023-04-11T00:02:41.978Z,14.80
2023-04-11T00:05:09.823Z,14.80
2023-04-11T00:07:36.989Z,14.90
2023-04-11T00:10:04.594Z,15.00
2023-04-11T00:12:31.744Z,14.80
2023-04-11T00:14:58.941Z,14.70
2023-04-11T00:17:28.712Z,15.00
2023-04-11T00:19:57.768Z,14.90
2023-04-11T00:22:24.965Z,14.90
2023-04-11T00:24:53.012Z,14.80
2023-04-11T00:27:21.803Z,14.90
2023-04-11T00:29:49.261Z,14.90
2023-04-11T00:32:16.428Z,14.70
2023-04-11T00:34:43.675Z,14.90
2023-04-11T00:37:12.705Z,15.10
2023-04-11T00:39:40.071Z,14.80
2023-04-11T00:42:08.171Z,15.10
2023-04-11T00:44:36.220Z,14.70
2023-04-11T00:47:05.819Z,14.90
2023-04-11T00:49:33.502Z,14.80
2023-04-11T00:52:00.903Z,14.80
2023-04-11T00:54:30.173Z,14.70
2023-04-11T00:57:03.122Z,14.70
2023-04-11T00:59:31.270Z,15.10
2023-04-11T01:01:59.822Z,14.80
2023-04-11T01:04:27.162Z,15.10
2023-04-11T01:07:06.124Z,14.60
2023-04-11T01:09:35.049Z,14.60
2023-04-11T01:12:03.822Z,14.50
2023-04-11T01:14:31.147Z,14.50
2023-04-11T01:17:01.927Z,14.50
2023-04-11T01:19:29.485Z,14.50
2023-04-11T01:21:57.934Z,14.40
2023-04-11T01:24:25.207Z,14.40
2023-04-11T01:26:52.449Z,14.60
2023-04-11T01:29:19.657Z,14.40
2023-04-11T01:31:47.049Z,14.10
2023-04-11T01:34:28.627Z,14.00
2023-04-11T01:37:05.428Z,14.00
2023-04-11T01:40:15.092Z,13.70
2023-04-11T01:46:00.518Z,13.50
2023-04-11T01:52:23.761Z,13.10
2023-04-11T01:54:50.956Z,13.00
2023-04-11T01:57:18.135Z,12.90
2023-04-11T01:59:45.406Z,12.90
2023-04-11T02:02:12.668Z,12.80
2023-04-11T02:04:40.115Z,12.90
2023-04-11T02:07:07.315Z,12.70
2023-04-11T02:09:34.488Z,12.60
2023-04-11T02:12:01.724Z,12.70
2023-04-11T02:14:43.196Z,12.60
2023-04-11T02:17:10.661Z,12.80
2023-04-11T02:19:41.067Z,12.50
2023-04-11T02:22:11.678Z,12.60
2023-04-11T02:24:39.110Z,12.70
2023-04-11T02:27:06.438Z,12.80
2023-04-11T02:29:33.776Z,12.60
2023-04-11T02:32:01.244Z,12.70
2023-04-11T02:34:28.507Z,12.60
2023-04-11T02:36:55.746Z,12.40
2023-04-11T02:39:24.153Z,12.40
2023-04-11T02:41:51.695Z,12.50
2023-04-11T02:44:19.706Z,13.00
2023-04-11T02:46:46.988Z,13.20
2023-04-11T02:49:14.213Z,13.60
2023-04-11T02:51:41.358Z,13.40
2023-04-11T02:54:08.570Z,13.20
2023-04-11T02:56:38.726Z,13.50
2023-04-11T02:59:06.981Z,14.00
2023-04-11T03:01:34.520Z,13.60
2023-04-11T03:04:01.889Z,13.80
2023-04-11T03:06:29.316Z,13.80
2023-04-11T03:08:57.002Z,13.90
2023-04-11T03:11:24.357Z,13.50
2023-04-11T03:13:51.601Z,13.60
2023-04-11T03:16:19.875Z,13.70
2023-04-11T03:18:47.150Z,13.60
2023-04-11T03:21:14.334Z,13.90
2023-04-11T03:23:41.593Z,13.80
2023-04-11T03:26:08.798Z,13.80
2023-04-11T03:28:36.123Z,13.50
2023-04-11T03:31:03.385Z,13.10
2023-04-11T03:33:30.660Z,13.60
2023-04-11T03:35:58.043Z,13.10
2023-04-11T03:38:26.026Z,13.40
2023-04-11T03:40:53.520Z,13.00
2023-04-11T03:43:20.707Z,12.60
2023-04-11T03:45:47.914Z,12.80
2023-04-11T03:48:17.136Z,12.70
2023-04-11T03:50:45.563Z,12.80
2023-04-11T03:53:12.803Z,12.30
2023-04-11T03:55:39.994Z,12.10
2023-04-11T03:58:07.205Z,12.30
2023-04-11T04:00:34.358Z,12.20
2023-04-11T04:03:01.794Z,12.10
2023-04-11T04:05:29.201Z,12.30
2023-04-11T04:07:56.424Z,12.20
2023-04-11T04:10:23.694Z,12.10
2023-04-11T04:12:51.528Z,13.10
2023-04-11T04:15:18.775Z,12.60
2023-04-11T04:17:45.978Z,11.90
2023-04-11T04:20:13.228Z,12.30
2023-04-11T04:22:40.583Z,11.30
2023-04-11T04:25:10.982Z,10.70
2023-04-11T04:27:44.055Z,10.50
2023-04-11T04:30:15.719Z,10.50
2023-04-11T04:32:45.002Z,10.40
2023-04-11T04:35:14.158Z,10.40
2023-04-11T04:37:45.545Z,10.70
2023-04-11T04:40:14.294Z,10.70
2023-04-11T04:42:43.049Z,10.50
2023-04-11T04:45:11.257Z,10.50
2023-04-11T04:47:38.892Z,10.80
2023-04-11T04:50:06.588Z,10.80
2023-04-11T04:52:33.797Z,10.50
2023-04-11T04:55:01.565Z,10.70
2023-04-11T04:57:30.025Z,10.60
2023-04-11T04:59:57.880Z,10.80
2023-04-11T05:02:26.654Z,10.30
2023-04-11T05:04:55.209Z,10.70
2023-04-11T05:07:22.501Z,10.80
2023-04-11T05:09:49.716Z,10.40
2023-04-11T05:12:20.263Z,10.70
2023-04-11T05:14:47.763Z,10.80
2023-04-11T05:17:14.946Z,10.80
2023-04-11T05:19:42.185Z,10.70
2023-04-11T05:22:09.360Z,10.90
2023-04-11T05:24:36.776Z,11.30
2023-04-11T05:27:03.976Z,11.50
2023-04-11T05:29:31.177Z,11.00
2023-04-11T05:31:58.530Z,11.30
2023-04-11T05:34:25.791Z,10.70
2023-04-11T05:36:53.022Z,10.50
2023-04-11T05:39:20.219Z,10.60
2023-04-11T05:41:47.411Z,11.00
2023-04-11T05:44:14.590Z,10.80
2023-04-11T05:46:41.769Z,10.80
2023-04-11T05:49:08.963Z,10.60
2023-04-11T05:51:36.158Z,10.60
2023-04-11T05:54:03.498Z,10.80
2023-04-11T05:56:30.670Z,10.90
2023-04-11T05:58:57.860Z,11.40
2023-04-11T06:01:26.099Z,11.20
2023-04-11T06:03:53.357Z,11.50
2023-04-11T06:06:20.784Z,11.30
2023-04-11T06:08:48.408Z,11.80
2023-04-11T06:11:15.948Z,11.70
2023-04-11T06:13:43.135Z,11.60
2023-04-11T06:16:10.652Z,12.00
2023-04-11T06:18:37.885Z,11.40
2023-04-11T06:21:05.723Z,11.80
2023-04-11T06:23:32.898Z,11.80
2023-04-11T06:26:00.349Z,11.70
2023-04-11T06:28:27.529Z,11.50
2023-04-11T06:30:54.814Z,11.80
2023-04-11T06:33:22.126Z,11.80
2023-04-11T06:35:49.375Z,12.20
2023-04-11T06:38:16.836Z,12.00
2023-04-11T06:40:44.001Z,11.20
2023-04-11T06:43:11.307Z,11.80
2023-04-11T06:45:38.479Z,12.20
2023-04-11T06:48:06.087Z,12.10
2023-04-11T06:50:33.273Z,11.90
2023-04-11T06:53:00.856Z,11.90
2023-04-11T06:55:28.123Z,11.60
2023-04-11T06:57:55.314Z,12.10
2023-04-11T07:00:22.557Z,11.90
2023-04-11T07:02:50.016Z,11.80
2023-04-11T07:05:17.415Z,11.90
2023-04-11T07:07:44.646Z,10.80
2023-04-11T07:10:11.874Z,11.40
2023-04-11T07:12:39.074Z,11.90
2023-04-11T07:15:06.951Z,12.00
2023-04-11T07:17:34.160Z,12.30
2023-04-11T07:20:01.363Z,12.00
2023-04-11T07:22:29.276Z,12.20
2023-04-11T07:24:57.406Z,12.20
2023-04-11T07:27:24.602Z,12.40
2023-04-11T07:29:51.796Z,12.30
2023-04-11T07:32:18.998Z,12.60
2023-04-11T07:34:46.197Z,12.70
2023-04-11T07:37:13.455Z,12.70
2023-04-11T07:39:40.927Z,12.40
2023-04-11T07:42:08.359Z,12.60
2023-04-11T07:44:35.682Z,12.70
2023-04-11T07:47:02.962Z,12.70
2023-04-11T07:49:30.244Z,12.60
2023-04-11T07:51:57.467Z,12.70
2023-04-11T07:54:25.361Z,12.20
2023-04-11T07:56:52.583Z,11.50
2023-04-11T07:59:19.746Z,11.70
2023-04-11T08:01:49.741Z,11.50
2023-04-11T08:04:17.123Z,11.30
2023-04-11T08:06:45.133Z,11.40
2023-04-11T08:09:12.318Z,11.40
2023-04-11T08:11:39.495Z,11.10
2023-04-11T08:14:06.686Z,10.90
2023-04-11T08:16:36.040Z,11.20
2023-04-11T08:19:03.307Z,11.30
2023-04-11T08:21:31.293Z,11.90
2023-04-11T08:23:58.773Z,11.90
2023-04-11T08:26:26.094Z,12.30
2023-04-11T08:28:53.280Z,12.50
2023-04-11T08:31:20.606Z,12.60
2023-04-11T08:33:47.966Z,12.40
2023-04-11T08:36:15.382Z,12.60
2023-04-11T08:38:42.665Z,11.80
2023-04-11T08:41:09.848Z,11.80
2023-04-11T08:43:38.971Z,12.20
2023-04-11T08:46:09.707Z,12.50
2023-04-11T08:48:36.958Z,12.60
2023-04-11T08:51:04.365Z,11.90
2023-04-11T08:53:31.957Z,12.20
2023-04-11T08:56:08.711Z,12.70
2023-04-11T08:58:58.490Z,12.00
2023-04-11T09:01:27.296Z,12.80
2023-04-11T09:03:55.168Z,12.80
2023-04-11T09:06:32.591Z,12.40
2023-04-11T09:09:29.673Z,11.40
2023-04-11T09:12:23.951Z,11.30
2023-04-11T09:15:22.284Z,11.80
2023-04-11T09:18:48.129Z,12.50
2023-04-11T09:21:40.745Z,13.10
2023-04-11T09:24:27.519Z,12.00
2023-04-11T09:27:27.118Z,12.20
2023-04-11T09:30:27.724Z,12.00
2023-04-11T09:32:54.974Z,13.10
2023-04-11T09:35:28.325Z,13.30
2023-04-11T09:37:57.829Z,12.80
2023-04-11T09:40:26.644Z,12.80
2023-04-11T09:43:02.261Z,12.60
2023-04-11T09:45:32.214Z,13.10
2023-04-11T09:48:03.636Z,13.50
2023-04-11T09:50:31.804Z,13.00
2023-04-11T09:52:59.493Z,13.00
2023-04-11T09:55:27.032Z,13.40
2023-04-11T09:57:54.745Z,13.30
2023-04-11T10:00:24.411Z,13.80
2023-04-11T10:02:53.592Z,13.50
2023-04-11T10:05:26.819Z,14.10
2023-04-11T10:08:06.291Z,13.60
2023-04-11T10:10:33.535Z,13.80
2023-04-11T10:13:00.779Z,14.40
2023-04-11T10:15:28.917Z,14.40
2023-04-11T10:18:12.216Z,15.10
2023-04-11T10:20:53.123Z,14.80
2023-04-11T10:23:20.324Z,15.10
2023-04-11T10:26:09.704Z,15.30
2023-04-11T10:28:40.575Z,14.20
2023-04-11T10:31:08.929Z,13.80
2023-04-11T10:33:37.890Z,14.60
2023-04-11T10:36:10.248Z,14.90
2023-04-11T10:38:43.734Z,14.90
2023-04-11T10:41:18.002Z,14.80
2023-04-11T10:43:46.247Z,14.60
2023-04-11T10:46:20.860Z,14.60
2023-04-11T10:48:59.009Z,14.00
2023-04-11T10:51:27.865Z,13.70
2023-04-11T10:53:59.390Z,14.40
2023-04-11T10:56:51.407Z,15.00
2023-04-11T10:59:34.433Z,15.40
2023-04-11T11:02:02.756Z,14.50
2023-04-11T11:04:34.559Z,14.90
2023-04-11T11:07:04.131Z,14.50
2023-04-11T11:09:32.087Z,14.40
2023-04-11T11:12:16.062Z,14.90
2023-04-11T11:14:44.927Z,14.90
2023-04-11T11:17:13.697Z,15.40
2023-04-11T11:19:45.133Z,14.50
2023-04-11T11:22:25.323Z,14.90
2023-04-11T11:24:53.183Z,14.80
2023-04-11T11:27:24.694Z,14.50
2023-04-11T11:29:52.409Z,14.70
2023-04-11T11:32:29.397Z,15.00
2023-04-11T11:34:57.491Z,14.90
2023-04-11T11:37:25.149Z,15.20
2023-04-11T11:39:52.637Z,15.40
2023-04-11T11:42:19.911Z,14.70
2023-04-11T11:44:47.074Z,15.50
2023-04-11T11:47:17.722Z,14.40
2023-04-11T11:49:51.075Z,15.10
2023-04-11T11:52:34.365Z,14.80
2023-04-11T11:55:08.817Z,13.90
2023-04-11T11:57:37.964Z,14.20
2023-04-11T12:00:05.936Z,14.50
2023-04-11T12:02:36.222Z,14.70
2023-04-11T12:05:06.031Z,15.40
2023-04-11T12:07:34.529Z,15.90
2023-04-11T12:10:03.273Z,15.30
2023-04-11T12:12:38.274Z,16.10
2023-04-11T12:15:12.873Z,16.00
2023-04-11T12:17:40.782Z,15.30
2023-04-11T12:20:10.560Z,15.10
2023-04-11T12:22:38.346Z,15.30
2023-04-11T12:25:15.064Z,14.80
2023-04-11T12:27:43.522Z,15.70
2023-04-11T12:30:12.623Z,16.00
2023-04-11T12:32:39.834Z,15.40
2023-04-11T12:35:07.934Z,15.20
2023-04-11T12:37:35.426Z,16.30
2023-04-11T12:40:12.591Z,16.80
2023-04-11T12:45:12.089Z,15.70
2023-04-11T12:47:39.723Z,14.80
2023-04-11T12:50:07.543Z,15.00
2023-04-11T12:52:35.128Z,15.50
2023-04-11T12:55:02.714Z,15.70
2023-04-11T12:57:30.058Z,16.10
2023-04-11T12:59:57.227Z,16.10
2023-04-11T13:02:24.548Z,16.50
2023-04-11T13:04:55.229Z,16.20
2023-04-11T13:07:22.604Z,16.30
2023-04-11T13:09:50.399Z,15.90
2023-04-11T13:12:17.719Z,15.40
2023-04-11T13:14:44.906Z,15.40
2023-04-11T13:17:12.219Z,15.50
2023-04-11T13:19:39.406Z,15.30
2023-04-11T13:22:06.729Z,15.20
2023-04-11T13:24:33.910Z,14.50
2023-04-11T13:27:01.318Z,14.30
2023-04-11T13:29:28.503Z,15.20
2023-04-11T13:31:55.892Z,15.30
2023-04-11T13:34:23.258Z,14.60
2023-04-11T13:36:51.253Z,14.70
2023-04-11T13:39:18.914Z,14.90
2023-04-11T13:41:46.102Z,15.50
2023-04-11T13:44:13.312Z,15.60
2023-04-11T13:46:40.475Z,15.90
2023-04-11T13:49:07.629Z,16.40
2023-04-11T13:51:34.805Z,16.60
2023-04-11T13:54:01.968Z,15.20
2023-04-11T13:56:29.664Z,15.50
2023-04-11T13:58:57.029Z,15.30
2023-04-11T14:01:24.616Z,15.00
2023-04-11T14:03:52.261Z,15.00
2023-04-11T14:06:19.719Z,15.50
2023-04-11T14:08:49.183Z,15.90
2023-04-11T14:11:17.124Z,15.60
2023-04-11T14:13:44.325Z,15.40
2023-04-11T14:16:11.816Z,16.20
2023-04-11T14:18:39.010Z,16.40
2023-04-11T14:21:07.320Z,16.70
2023-04-11T14:23:34.824Z,17.50
2023-04-11T14:26:01.991Z,17.10
2023-04-11T14:28:29.250Z,17.60
2023-04-11T14:30:57.019Z,17.70
2023-04-11T14:33:24.305Z,17.60
2023-04-11T14:35:51.886Z,18.20
2023-04-11T14:38:19.065Z,18.00
2023-04-11T14:40:46.446Z,19.00
2023-04-11T14:43:13.792Z,17.50
2023-04-11T14:45:41.140Z,16.00
2023-04-11T14:48:08.475Z,16.00
2023-04-11T14:50:35.758Z,16.20
2023-04-11T14:53:03.027Z,16.60
2023-04-11T14:55:30.254Z,16.10
2023-04-11T14:57:57.525Z,16.20
2023-04-11T15:00:25.139Z,16.50
2023-04-11T15:02:54.275Z,16.00
2023-04-11T15:05:23.114Z,15.70
2023-04-11T15:07:51.961Z,15.70
2023-04-11T15:10:24.830Z,15.90
2023-04-11T15:12:52.122Z,16.10
2023-04-11T15:15:19.343Z,16.50
2023-04-11T15:18:10.586Z,16.10
2023-04-11T15:20:37.784Z,16.20
2023-04-11T15:23:04.957Z,15.90
2023-04-11T15:25:32.245Z,15.70
2023-04-11T15:28:00.305Z,15.50
2023-04-11T15:30:27.636Z,16.00
2023-04-11T15:32:54.934Z,16.20
2023-04-11T15:35:22.180Z,15.40
2023-04-11T15:37:49.927Z,15.10
2023-04-11T15:40:18.596Z,15.90
2023-04-11T15:42:45.785Z,17.00
2023-04-11T15:45:12.943Z,17.20
2023-04-11T15:47:40.146Z,16.30
2023-04-11T15:50:07.674Z,17.70
2023-04-11T15:52:34.893Z,18.40
2023-04-11T15:55:02.051Z,16.90
2023-04-11T15:57:29.228Z,16.90
2023-04-11T15:59:56.383Z,16.50
2023-04-11T16:02:23.843Z,16.30
2023-04-11T16:04:53.863Z,16.30
2023-04-11T16:07:23.237Z,16.40
2023-04-11T16:09:50.633Z,16.40
2023-04-11T16:12:18.154Z,15.60
2023-04-11T16:14:45.917Z,16.20
2023-04-11T16:17:15.410Z,16.60
2023-04-11T16:19:42.590Z,16.10
2023-04-11T16:22:09.727Z,15.80
2023-04-11T16:24:36.949Z,15.30
2023-04-11T16:27:04.175Z,15.50
2023-04-11T16:29:31.870Z,15.10
2023-04-11T16:31:59.089Z,15.00
2023-04-11T16:34:26.483Z,15.20
2023-04-11T16:36:53.726Z,15.60
2023-04-11T16:39:20.933Z,16.00
2023-04-11T16:41:48.183Z,15.20
2023-04-11T16:44:16.255Z,15.10
2023-04-11T16:46:43.833Z,15.50
2023-04-11T16:49:11.419Z,15.20
2023-04-11T16:51:38.797Z,15.40
2023-04-11T16:54:10.811Z,14.80
2023-04-11T16:56:38.143Z,14.90
2023-04-11T16:59:05.728Z,14.40
2023-04-11T17:01:33.013Z,14.40
2023-04-11T17:04:01.468Z,14.90
2023-04-11T17:06:29.053Z,14.40
2023-04-11T17:08:57.409Z,14.60
2023-04-11T17:11:25.011Z,14.60
2023-04-11T17:13:54.485Z,14.50
2023-04-11T17:16:22.337Z,14.50
2023-04-11T17:18:49.618Z,14.30
2023-04-11T17:21:17.104Z,14.70
2023-04-11T17:23:44.786Z,15.40
2023-04-11T17:26:12.219Z,15.40
2023-04-11T17:28:40.669Z,15.00
2023-04-11T17:31:18.777Z,15.00
2023-04-11T17:33:46.510Z,14.60
2023-04-11T17:36:14.022Z,14.60
2023-04-11T17:38:43.283Z,14.50
2023-04-11T17:41:14.905Z,14.40
2023-04-11T17:43:43.697Z,14.40
2023-04-11T17:46:12.233Z,14.20
2023-04-11T17:48:39.566Z,14.20
2023-04-11T17:51:06.904Z,14.40
2023-04-11T17:53:34.192Z,14.20
2023-04-11T17:56:06.004Z,14.20
2023-04-11T17:58:33.741Z,14.20
2023-04-11T18:01:03.496Z,14.60
2023-04-11T18:03:35.569Z,14.10
2023-04-11T18:06:03.087Z,14.00
2023-04-11T18:08:46.712Z,13.80
2023-04-11T18:11:17.365Z,13.90
2023-04-11T18:13:44.764Z,14.00
2023-04-11T18:16:12.491Z,13.90
2023-04-11T18:18:39.850Z,14.10
2023-04-11T18:21:08.072Z,14.80
2023-04-11T18:23:35.654Z,15.00
2023-04-11T18:26:02.884Z,15.20
2023-04-11T18:28:30.366Z,15.10
2023-04-11T18:30:57.613Z,14.80
2023-04-11T18:33:25.621Z,15.20
2023-04-11T18:35:52.872Z,14.50
2023-04-11T18:38:20.420Z,14.20
2023-04-11T18:40:48.859Z,14.00
2023-04-11T18:43:16.238Z,14.70
2023-04-11T18:45:44.448Z,14.60
2023-04-11T18:48:12.402Z,14.30
2023-04-11T18:50:42.958Z,14.00
2023-04-11T18:53:13.314Z,14.10
2023-04-11T18:55:41.427Z,13.70
2023-04-11T18:58:09.758Z,13.50
2023-04-11T19:00:39.192Z,13.70
2023-04-11T19:03:14.754Z,13.20
2023-04-11T19:05:42.701Z,13.00
2023-04-11T19:08:11.126Z,13.30
2023-04-11T19:10:38.348Z,13.40
2023-04-11T19:13:06.869Z,13.40
2023-04-11T19:15:34.275Z,13.50
2023-04-11T19:18:01.895Z,13.20
2023-04-11T19:20:29.486Z,13.10
2023-04-11T19:22:56.982Z,13.20
2023-04-11T19:25:24.317Z,13.40
2023-04-11T19:27:51.659Z,13.60
2023-04-11T19:30:18.849Z,13.80
2023-04-11T19:32:47.602Z,14.20
2023-04-11T19:35:16.434Z,13.80
2023-04-11T19:37:43.647Z,13.80
2023-04-11T19:40:11.250Z,13.50
2023-04-11T19:42:40.045Z,13.70
2023-04-11T19:45:11.086Z,13.50
2023-04-11T19:47:39.635Z,13.70
2023-04-11T19:50:13.106Z,14.20
2023-04-11T19:52:41.527Z,13.50
2023-04-11T19:55:09.443Z,13.80
2023-04-11T19:57:40.195Z,13.90
2023-04-11T20:00:16.979Z,13.90
2023-04-11T20:02:46.526Z,14.40
2023-04-11T20:05:22.122Z,14.10
2023-04-11T20:07:49.330Z,14.40
2023-04-11T20:10:17.178Z,14.60
2023-04-11T20:12:44.649Z,14.80
2023-04-11T20:15:12.217Z,14.60
2023-04-11T20:17:39.607Z,14.70
2023-04-11T20:20:08.899Z,14.80
2023-04-11T20:22:39.254Z,14.60
2023-04-11T20:25:11.656Z,14.50
2023-04-11T20:27:39.667Z,14.80
2023-04-11T20:30:09.347Z,14.70
2023-04-11T20:32:40.865Z,14.80
2023-04-11T20:35:09.743Z,14.60
2023-04-11T20:37:37.343Z,14.00
2023-04-11T20:40:10.292Z,13.60
2023-04-11T20:42:42.425Z,13.10
2023-04-11T20:45:15.545Z,12.50
2023-04-11T20:47:46.041Z,12.50
2023-04-11T20:50:14.460Z,12.80
2023-04-11T20:52:43.345Z,13.00
2023-04-11T20:55:11.592Z,12.50
2023-04-11T20:57:38.884Z,12.90
2023-04-11T21:00:17.306Z,12.80
2023-04-11T21:02:46.286Z,12.50
2023-04-11T21:05:14.153Z,12.50
2023-04-11T21:07:42.116Z,12.60
2023-04-11T21:10:10.334Z,12.20
2023-04-11T21:12:37.908Z,12.30
2023-04-11T21:15:05.662Z,12.50
2023-04-11T21:17:37.198Z,12.30
2023-04-11T21:20:17.732Z,12.00
2023-04-11T21:22:46.564Z,11.90
2023-04-11T21:25:13.909Z,11.90
2023-04-11T21:27:41.290Z,12.00
2023-04-11T21:30:09.568Z,12.10
2023-04-11T21:32:37.044Z,11.70
2023-04-11T21:35:08.127Z,11.70
2023-04-11T21:37:35.367Z,11.70
2023-04-11T21:40:03.102Z,11.50
2023-04-11T21:42:31.122Z,11.50
2023-04-11T21:44:58.353Z,11.60
2023-04-11T21:47:25.679Z,11.50
2023-04-11T21:49:52.903Z,11.60
2023-04-11T21:52:20.130Z,11.40
2023-04-11T21:54:47.429Z,11.90
2023-04-11T21:57:14.632Z,11.30
2023-04-11T21:59:41.894Z,11.10
2023-04-11T22:02:09.300Z,11.00
2023-04-11T22:04:47.280Z,11.20
2023-04-11T22:07:24.031Z,10.80
2023-04-11T22:09:58.115Z,10.80
2023-04-11T22:12:26.848Z,10.70
2023-04-11T22:14:56.987Z,10.70
2023-04-11T22:17:24.206Z,10.70
2023-04-11T22:19:51.816Z,10.70
2023-04-11T22:22:19.038Z,10.60
2023-04-11T22:24:46.451Z,10.30
2023-04-11T22:27:13.793Z,10.20
2023-04-11T22:29:41.363Z,10.30
2023-04-11T22:32:09.030Z,10.40
2023-04-11T22:34:36.433Z,11.10
2023-04-11T22:37:03.810Z,10.20
2023-04-11T22:39:31.571Z,10.40
2023-04-11T22:41:58.912Z,10.80
2023-04-11T22:44:26.897Z,10.60
2023-04-11T22:47:06.575Z,10.70
2023-04-11T22:49:40.616Z,10.70
2023-04-11T22:52:14.370Z,10.80
2023-04-11T22:54:42.644Z,10.90
2023-04-11T22:57:10.262Z,10.90
2023-04-11T22:59:37.509Z,10.50
2023-04-11T23:02:05.016Z,10.60
2023-04-11T23:04:32.741Z,11.00
2023-04-11T23:07:00.126Z,10.70
2023-04-11T23:09:28.316Z,10.40
2023-04-11T23:11:55.537Z,10.40
2023-04-11T23:14:22.729Z,10.60
2023-04-11T23:16:49.962Z,10.70
2023-04-11T23:19:18.707Z,10.20
2023-04-11T23:21:46.067Z,10.90
2023-04-11T23:24:13.293Z,11.50
2023-04-11T23:26:41.015Z,11.30
2023-04-11T23:29:08.554Z,11.30
2023-04-11T23:31:35.887Z,10.90
2023-04-11T23:34:03.049Z,10.90
2023-04-11T23:36:30.233Z,10.80
2023-04-11T23:38:58.258Z,10.90
2023-04-11T23:41:25.692Z,11.20
2023-04-11T23:43:52.987Z,11.40
2023-04-11T23:46:20.321Z,11.10
2023-04-11T23:48:47.549Z,11.40
2023-04-11T23:51:15.311Z,11.40
2023-04-11T23:53:45.967Z,11.10
2023-04-11T23:56:13.672Z,11.70
2023-04-11T23:58:40.897Z,11.50
